Tiempo atmosférico en la estación meteorológica de Cieza, Murcia (265 m.)



Fecha
DESCASC
Temp. máxima en grados centígrados (hora)
DESCASC
Temp. mínima en grados centígrados (hora)
DESCASC
Temp. media en grados centígrados
DESCASC
Racha de viento máxima en m/sg (hora)
DESCASC
Velocidad máxima media en intervalos de 10 minutos(hora)
DESCASC
Precipitaciones diarias en mm
DESCASC
Precipitaciones de 00:00 a 06:00 en mm
DESCASC
Precipitaciones de 06:00 a 12:00 en mm
DESCASC
Precipitaciones de 12:00 a 18:00 en mm
DESCASC
Precipitaciones de 18:00 a 24:00 en mm
DESCASC
18-01-2018 17 (15:10) 3.1 (08:20) 10 9.17 (10:40) 4.72 (16:40) 0 0 0 0 0
17-01-2018 19.3 (15:30) 6.3 (07:30) 12.8 10 (10:00) 5.56 (14:40) 0 0 0 0 0
16-01-2018 18.9 (16:50) 1 (08:30) 9.9 8.33 (23:00) 5.56 (23:00) 0 0 0 0 0
15-01-2018 13.2 (16:10) 4.6 (23:59) 8.9 6.39 (14:30) 3.61 (11:30) 4.9 4.9 0 0 0
14-01-2018 12.5 (15:00) 2.3 (00:00) 7.4 6.94 (08:20) 4.17 (08:10) 1.7 0 0 0 1.7
13-01-2018 11.1 (16:40) 0.5 (00:00) 5.8 6.39 (04:30) 4.44 (04:30) 0 0 0 0 0
12-01-2018 14.9 (16:10) 4 (00:00) 9.4 9.17 (12:30) 5.28 (07:10) 0 0 0 0 0
11-01-2018 12.2 (00:30) 6.3 (00:00) 9.3 14.72 (14:00) 7.78 (15:50) -- -- -- -- --
10-01-2018 16 (15:00) 4.4 (00:00) 10.2 12.22 (16:50) 6.67 (15:40) -- -- -- -- --
09-01-2018 10.7 (16:20) -0.6 (-00:0) 5 5.56 (11:00) 3.89 (12:40) -- -- -- -- --
08-01-2018 12.3 (15:50) -0.4 (00:00) 6 4.17 (04:30) 3.33 (08:00) -- -- -- -- --
07-01-2018 11.7 (13:50) 1.5 (00:00) 6.6 8.61 (17:00) 5.56 (17:10) -- -- -- -- --
06-01-2018 13.5 (14:00) 2.3 (00:00) 7.9 12.22 (18:10) 7.22 (18:10) -- 0 0 -- --
05-01-2018 19.3 (16:00) 5.4 (00:00) 12.3 5.56 (19:40) 3.89 (07:00) 0 0 0 0 0
04-01-2018 21.9 (15:10) 10.4 (06:30) 16.1 8.06 (17:40) 4.44 (00:40) 0 0 0 0 0
03-01-2018 19.8 (14:20) 9.8 (00:00) 14.8 10.56 (01:30) 6.39 (01:30) 0 0 0 0 0
02-01-2018 18.5 (14:30) 5.2 (00:00) 11.8 12.22 (12:40) 5.83 (14:10) 0 0 0 0 0
01-01-2018 19.8 (15:50) 5.9 (00:00) 12.8 17.22 (00:10) 9.17 (00:40) 0 0 0 0 0
31-12-2017 16.2 (15:50) 5.3 (00:00) 10.8 20.28 (23:30) 11.39 (23:30) 0 0 0 0 0
30-12-2017 20.4 (15:40) 7.1 (00:00) 13.7 7.78 (15:10) 4.17 (15:10) 0 0 0 0 0
29-12-2017 21 (14:40) 12.7 (00:00) 16.8 11.39 (14:50) 6.39 (15:00) 0 0 0 0 0
28-12-2017 20.9 (14:20) 9.2 (00:00) 15 14.44 (14:00) 8.61 (15:00) 0 0 0 0 0
27-12-2017 16.5 (14:10) 3.8 (00:00) 10.1 17.22 (14:30) 10.28 (16:30) 0.1 0 0.1 0 0
26-12-2017 14 (14:10) 3.6 (00:00) 8.8 11.67 (16:00) 6.67 (16:10) 0 0 0 0 0
25-12-2017 15.5 (16:10) 1.5 (00:00) 8.5 8.89 (12:20) 3.33 (11:30) 0 0 0 0 0
24-12-2017 14.7 (16:00) 5.2 (00:00) 9.9 6.39 (17:10) 3.89 (16:40) 0 0 0 0 0

Gráficas

Temp. máximas Temp. mínimas Temp. medias Precipitaciones Rachas de viento máximas Velocidades máximas media en intervalos de 10 minutos

Datos horarios

Fecha y hora oficial Temperatura (ºC) Velocidad del viento (km/h) Dirección del viento Racha (km/h) Dirección de racha Precipitación (mm) Presión (hPa) Tendencia (hPa) Humedad (%)
2018-01-22 23:00:00 13.9 9 Noroeste 18 Oeste 0 -- -- 48
2018-01-22 22:00:00 14.8 11 Oeste 23 Oeste 0 -- -- 45
2018-01-22 21:00:00 17.2 14 Oeste 24 Oeste 0 -- -- 42
2018-01-22 20:00:00 18.4 6 Noroeste 11 Noroeste 0 -- -- 39
2018-01-22 19:00:00 17.7 3 Noroeste 8 Noroeste 0 -- -- 39
2018-01-22 18:00:00 21 3 Noroeste 16 Norte 0 -- -- 33
2018-01-22 17:00:00 22.5 12 Norte 24 Noroeste 0 -- -- 32
2018-01-22 16:00:00 -- -- -- -- -- -- -- -- --
2018-01-22 15:00:00 22.8 7 Noroeste 19 Oeste 0 -- -- 33
2018-01-22 14:00:00 21.3 10 Oeste 17 Oeste 0 -- -- 37
2018-01-22 13:00:00 19.2 10 Noroeste 17 Oeste 0 -- -- 43
2018-01-22 12:00:00 16.3 12 Oeste 22 Oeste 0 -- -- 50
2018-01-22 11:00:00 13.2 12 Noroeste 19 Noroeste 0 -- -- 60
2018-01-22 10:00:00 10.3 14 Oeste 19 Oeste 0 -- -- 71
2018-01-22 09:00:00 7.9 9 Oeste 18 Oeste 0 -- -- 81
2018-01-22 08:00:00 8.6 8 Oeste 13 Noroeste 0 -- -- 78
2018-01-22 07:00:00 10.5 8 Noroeste 15 Noroeste 0 -- -- 71
2018-01-22 06:00:00 10.6 9 Oeste 14 Oeste 0 -- -- 70
2018-01-22 05:00:00 10.8 5 Noroeste 14 Noroeste 0 -- -- 66
2018-01-22 04:00:00 11.9 5 Oeste 14 Noroeste 0 -- -- 64
2018-01-22 03:00:00 11.3 0 Calma 17 Noroeste 0 -- -- 63
2018-01-22 02:00:00 12.6 6 Noroeste 16 Oeste 0 -- -- 60
2018-01-22 01:00:00 12.7 6 Oeste 12 Oeste 0 -- -- 58
2018-01-22 00:00:00 12.7 0 Calma 8 Sur 0 -- -- 55
2018-01-21 23:00:00 14.3 4 Noroeste 21 Noroeste 0 -- -- 51
2018-01-21 22:00:00 15.9 8 Noroeste 30 Noroeste 0 -- -- 48
2018-01-21 21:00:00 16.3 13 Noroeste 27 Noroeste 0 -- -- 46
2018-01-21 20:00:00 17.4 18 Noroeste 30 Noroeste 0 -- -- 45
2018-01-21 19:00:00 17.5 13 Noroeste 24 Noroeste 0 -- -- 43
2018-01-21 18:00:00 18.7 9 Noroeste 29 Norte 0 -- -- 40
2018-01-21 17:00:00 20.3 14 Noroeste 35 Norte 0 -- -- 38
2018-01-21 16:00:00 21.1 15 Noroeste 34 Norte 0 -- -- 36
2018-01-21 15:00:00 20.8 15 Noroeste 46 Oeste 0 -- -- 37
2018-01-21 14:00:00 19.9 18 Noroeste 40 Noroeste 0 -- -- 38
2018-01-21 13:00:00 19.1 14 Noroeste 48 Noroeste 0 -- -- 40
2018-01-21 12:00:00 17.4 23 Noroeste 40 Noroeste 0 -- -- 43
2018-01-21 11:00:00 16.1 18 Noroeste 32 Noroeste 0 -- -- 45
2018-01-21 10:00:00 14.1 14 Noroeste 48 Noroeste 0 -- -- 48
2018-01-21 09:00:00 13.4 26 Noroeste 44 Noroeste 0 -- -- 48
2018-01-21 08:00:00 12.7 19 Noroeste 29 Oeste 0 -- -- 48
2018-01-21 07:00:00 10.8 13 Oeste 29 Noroeste 0 -- -- 49
2018-01-21 06:00:00 12 10 Noroeste 24 Oeste 0 -- -- 48
2018-01-21 05:00:00 11.5 9 Oeste 29 Noroeste 0 -- -- 48
2018-01-21 04:00:00 12.6 18 Noroeste 33 Noroeste 0 -- -- 47
2018-01-21 03:00:00 12.7 17 Noroeste 35 Norte 0 -- -- 47
2018-01-21 02:00:00 11.7 18 Noroeste 35 Oeste 0 -- -- 47
2018-01-21 01:00:00 12 19 Noroeste 34 Oeste 0 -- -- 44
2018-01-21 00:00:00 11 10 Noroeste 16 Noroeste 0 -- -- 45
2018-01-20 23:00:00 11.9 4 Oeste 20 Oeste 0 -- -- 42
2018-01-20 22:00:00 10.8 0 Calma 8 Oeste 0 -- -- 44
2018-01-20 21:00:00 11.2 0 Calma 6 Sudoeste 0 -- -- 40
2018-01-20 20:00:00 13.4 3 Noroeste 19 Oeste 0 -- -- 34
2018-01-20 19:00:00 16 7 Noroeste 18 Noroeste 0 -- -- 32
2018-01-20 18:00:00 17.7 10 Oeste 23 Noroeste 0 -- -- 28
2018-01-20 17:00:00 20.3 10 Noroeste 24 Noroeste 0 -- -- 25
2018-01-20 16:00:00 20 12 Noroeste 28 Norte 0 -- -- 25
2018-01-20 15:00:00 19.3 13 Noroeste 28 Norte 0 -- -- 28
2018-01-20 14:00:00 17.6 11 Oeste 22 Oeste 0 -- -- 34
2018-01-20 13:00:00 15.7 7 Oeste 18 Oeste 0 -- -- 43
2018-01-20 12:00:00 12.9 11 Oeste 19 Oeste 0 -- -- 53
2018-01-20 11:00:00 9.5 8 Oeste 15 Oeste 0 -- -- 63
2018-01-20 10:00:00 6.7 6 Oeste 12 Oeste 0 -- -- 73
2018-01-20 09:00:00 5.6 9 Oeste 14 Sudoeste 0 -- -- 75
2018-01-20 08:00:00 6.6 7 Oeste 20 Oeste 0 -- -- 69
2018-01-20 07:00:00 5.8 10 Oeste 22 Noroeste 0 -- -- 73
2018-01-20 06:00:00 6.2 9 Oeste 17 Sudoeste 0 -- -- 75
2018-01-20 05:00:00 7.1 12 Oeste 28 Oeste 0 -- -- 67
2018-01-20 04:00:00 7.8 10 Oeste 20 Sudoeste 0 -- -- 66
2018-01-20 03:00:00 8.3 8 Oeste 16 Oeste 0 -- -- 64
2018-01-20 02:00:00 9.8 11 Oeste 22 Sudoeste 0 -- -- 58
2018-01-20 01:00:00 9.8 9 Oeste 19 Sudoeste 0 -- -- 62
2018-01-20 00:00:00 6.9 4 Oeste 18 Oeste 0 -- -- 73
2018-01-19 23:00:00 7.1 6 Oeste 11 Oeste 0 -- -- 76
2018-01-19 22:00:00 7.9 9 Oeste 15 Oeste 0 -- -- 73
2018-01-19 21:00:00 9.2 10 Oeste 15 Oeste 0 -- -- 68
2018-01-19 20:00:00 9.7 9 Oeste 12 Oeste 0 -- -- 62
2018-01-19 19:00:00 10.5 0 Calma 6 Oeste 0 -- -- 56
2018-01-19 18:00:00 12.8 4 Sudoeste 10 Oeste 0 -- -- 48
2018-01-19 17:00:00 15 6 Oeste 10 Oeste 0 -- -- 46
2018-01-19 16:00:00 13.6 7 Oeste 13 Oeste 0 -- -- 51
2018-01-19 15:00:00 13.3 9 Oeste 18 Oeste 0 -- -- 52
2018-01-19 14:00:00 12.3 11 Oeste 15 Oeste 0 -- -- 57
2018-01-19 13:00:00 11.1 7 Oeste 12 Oeste 0 -- -- 62
2018-01-19 12:00:00 9.8 6 Oeste 11 Oeste 0 -- -- 73
2018-01-19 11:00:00 8.5 2 Oeste 9 Noroeste 0 -- -- 79
2018-01-19 10:00:00 7.6 6 Oeste 9 Oeste 0 -- -- 81
2018-01-19 09:00:00 7.2 8 Oeste 12 Noroeste 0 -- -- 84
2018-01-19 08:00:00 7.1 9 Oeste 15 Oeste 0 -- -- 87
2018-01-19 07:00:00 6.9 7 Oeste 17 Oeste 0 -- -- 90
2018-01-19 06:00:00 6.7 9 Oeste 14 Oeste 0 -- -- 89
2018-01-19 05:00:00 7.4 4 Noroeste 15 Oeste 0 -- -- 89
2018-01-19 04:00:00 7.2 9 Oeste 14 Oeste 0 -- -- 92
2018-01-19 03:00:00 7.2 10 Oeste 17 Oeste 0 -- -- 91
2018-01-19 02:00:00 7.5 4 Noroeste 9 Oeste 0 -- -- 91
2018-01-19 01:00:00 8.3 3 Oeste 4 Oeste 0 -- -- 90
2018-01-19 00:00:00 8.4 0 Calma 4 Sudeste 0 -- -- 90
2018-01-18 23:00:00 8.5 0 Calma 5 Este 0 -- -- 89
2018-01-18 22:00:00 9.3 0 Calma 12 Sudeste 0 -- -- 89
2018-01-18 21:00:00 10.9 8 Sudeste 22 Sudeste 0 -- -- 85
2018-01-18 20:00:00 10.4 5 Sudeste 14 Sudeste 0 -- -- 79
2018-01-18 19:00:00 11.7 11 Sudeste 19 Sudeste 0 -- -- 73
2018-01-18 18:00:00 12.9 9 Sudeste 22 Sur 0 -- -- 57
2018-01-18 17:00:00 14.6 15 Sudeste 24 Sudeste 0 -- -- 49
2018-01-18 16:00:00 15.8 10 Sudeste 16 Sudeste 0 -- -- 44
2018-01-18 15:00:00 16.7 4 Sur 10 Sur 0 -- -- 44
2018-01-18 14:00:00 14.7 6 Oeste 15 Oeste 0 -- -- 51
2018-01-18 13:00:00 13 11 Oeste 16 Oeste 0 -- -- 60
2018-01-18 12:00:00 10.9 10 Oeste 17 Oeste 0 -- -- 64
2018-01-18 11:00:00 8.7 10 Oeste 33 Oeste 0 -- -- 72
2018-01-18 10:00:00 6.1 11 Oeste 15 Oeste 0 -- -- 82
2018-01-18 09:00:00 4.3 8 Oeste 14 Oeste 0 -- -- 89
2018-01-18 08:00:00 3.8 3 Noroeste 10 Oeste 0 -- -- 88
2018-01-18 07:00:00 4.8 7 Oeste 16 Oeste 0 -- -- 85
2018-01-18 06:00:00 5.2 12 Oeste 17 Oeste 0 -- -- 84
2018-01-18 05:00:00 3.9 9 Oeste 15 Oeste 0 -- -- 89
2018-01-18 04:00:00 4.4 9 Oeste 13 Oeste 0 -- -- 86
2018-01-18 03:00:00 5.3 10 Oeste 14 Oeste 0 -- -- 83
2018-01-18 02:00:00 6.2 9 Oeste 11 Noroeste 0 -- -- 83
2018-01-18 01:00:00 6.5 0 Calma 7 Sudeste 0 -- -- 79
2018-01-18 00:00:00 7.1 3 Este 6 Sudeste 0 -- -- 75
2018-01-17 23:00:00 8.1 3 Oeste 9 Oeste 0 -- -- 67
2018-01-17 22:00:00 10.9 5 Oeste 8 Oeste 0 -- -- 57
2018-01-17 21:00:00 11.3 5 Noroeste 9 Oeste 0 -- -- 55
2018-01-17 20:00:00 12.4 0 Calma 14 Norte 0 -- -- 48
2018-01-17 19:00:00 14.8 6 Noroeste 17 Norte 0 -- -- 43
2018-01-17 18:00:00 16.6 10 Noroeste 24 Noroeste 0 -- -- 37
2018-01-17 17:00:00 18.5 13 Noroeste 26 Noroeste 0 -- -- 32
2018-01-17 16:00:00 19.1 13 Noroeste 28 Noroeste 0 -- -- 31
2018-01-17 15:00:00 18.4 19 Noroeste 33 Noroeste 0 -- -- 37
2018-01-17 14:00:00 18.1 10 Noroeste 24 Norte 0 -- -- 41
2018-01-17 13:00:00 16.6 11 Noroeste 27 Noroeste 0 -- -- 46
2018-01-17 12:00:00 15.3 8 Noroeste 27 Noroeste 0 -- -- 51
2018-01-17 11:00:00 13.6 10 Noroeste 30 Noroeste 0 -- -- 57
2018-01-17 10:00:00 11.4 16 Noroeste 36 Noroeste 0 -- -- 66
2018-01-17 09:00:00 8.4 9 Oeste 20 Oeste 0 -- -- 77
2018-01-17 08:00:00 6.8 0 Calma 15 Oeste 0 -- -- 80
2018-01-17 07:00:00 6.9 8 Oeste 18 Oeste 0 -- -- 80
2018-01-17 06:00:00 8.5 10 Oeste 23 Oeste 0 -- -- 74
2018-01-17 05:00:00 8 14 Oeste 22 Oeste 0 -- -- 73
2018-01-17 04:00:00 7.4 9 Oeste 19 Oeste 0 -- -- 75
2018-01-17 03:00:00 6.8 14 Oeste 21 Oeste 0 -- -- 80
2018-01-17 02:00:00 6.9 12 Oeste 16 Oeste 0 -- -- 76
2018-01-17 01:00:00 8.1 12 Oeste 15 Oeste 0 -- -- 64
2018-01-17 00:00:00 10.3 13 Oeste 29 Oeste 0 -- -- 55
2018-01-16 23:00:00 10.9 20 Oeste 30 Oeste 0 -- -- 54
2018-01-16 22:00:00 11.2 10 Oeste 17 Oeste 0 -- -- 52
2018-01-16 21:00:00 11.4 6 Noroeste 19 Oeste 0 -- -- 51
2018-01-16 20:00:00 14.1 13 Oeste 23 Norte 0 -- -- 45
2018-01-16 19:00:00 15.7 12 Norte 27 Norte 0 -- -- 41
2018-01-16 18:00:00 16.2 6 Noroeste 18 Norte 0 -- -- 39
2018-01-16 17:00:00 18.1 6 Noroeste 14 Noroeste 0 -- -- 35
2018-01-16 16:00:00 17.9 8 Oeste 18 Sudoeste 0 -- -- 33
2018-01-16 15:00:00 17.2 8 Noroeste 16 Noroeste 0 -- -- 35
2018-01-16 14:00:00 14.8 9 Oeste 22 Sudoeste 0 -- -- 39
2018-01-16 13:00:00 11.8 13 Oeste 21 Oeste 0 -- -- 45
2018-01-16 12:00:00 9.6 16 Oeste 24 Oeste 0 -- -- 55
2018-01-16 11:00:00 7.4 15 Oeste 22 Oeste 0 -- -- 60
2018-01-16 10:00:00 4.7 12 Oeste 21 Oeste 0 -- -- 72
2018-01-16 09:00:00 1.6 12 Oeste 18 Oeste 0 -- -- 86
2018-01-16 08:00:00 1.4 12 Oeste 17 Oeste 0 -- -- 89
2018-01-16 07:00:00 1.5 13 Oeste 20 Oeste 0 -- -- 89
2018-01-16 06:00:00 1.3 14 Oeste 18 Oeste 0 -- -- 90
2018-01-16 05:00:00 1.6 5 Oeste 14 Oeste 0 -- -- 88
2018-01-16 04:00:00 2.8 8 Oeste 12 Oeste 0 -- -- 85
2018-01-16 03:00:00 3.3 7 Oeste 13 Oeste 0 -- -- 84
2018-01-16 02:00:00 3.5 8 Oeste 12 Oeste 0 -- -- 85
2018-01-16 01:00:00 3.8 6 Oeste 11 Oeste 0 -- -- 82
2018-01-16 00:00:00 4.7 7 Oeste 12 Oeste 0 -- -- 79
2018-01-15 23:00:00 5.4 6 Oeste 13 Oeste 0 -- -- 76
2018-01-15 22:00:00 6.6 9 Oeste 12 Oeste 0 -- -- 73
2018-01-15 21:00:00 6.6 5 Oeste 8 Oeste 0 -- -- 70
2018-01-15 20:00:00 7.8 6 Oeste 8 Oeste 0 -- -- 67
2018-01-15 19:00:00 7.6 0 Calma 9 Sudoeste 0 -- -- 59
2018-01-15 18:00:00 10.6 5 Sudoeste 15 Oeste 0 -- -- 49
2018-01-15 17:00:00 12.7 7 Oeste 16 Oeste 0 -- -- 46
2018-01-15 16:00:00 13 9 Oeste 15 Sudoeste 0 -- -- 47
2018-01-15 15:00:00 11.7 9 Oeste 23 Oeste 0 -- -- 51
2018-01-15 14:00:00 11.4 10 Oeste 19 Oeste 0 -- -- 56
2018-01-15 13:00:00 9.4 10 Oeste 18 Oeste 0 -- -- 66
2018-01-15 12:00:00 7.9 12 Oeste 21 Oeste 0 -- -- 76
2018-01-15 11:00:00 6.8 10 Noroeste 17 Oeste 0 -- -- 82
2018-01-15 10:00:00 6 8 Oeste 21 Oeste 0 -- -- 86
2018-01-15 09:00:00 5.6 11 Oeste 18 Oeste 0 -- -- 89
2018-01-15 08:00:00 5.4 12 Oeste 17 Noroeste 0 -- -- 91
2018-01-15 07:00:00 5.5 10 Noroeste 17 Oeste 0 -- -- 92
2018-01-15 06:00:00 5.6 6 Oeste 11 Noroeste 0.1 -- -- 92
2018-01-15 05:00:00 5.6 5 Noroeste 11 Oeste 0.7 -- -- 92
2018-01-15 04:00:00 5.7 7 Oeste 13 Noroeste 2.4 -- -- 92
2018-01-15 03:00:00 5.8 6 Noroeste 14 Noroeste 1.5 -- -- 92
2018-01-15 02:00:00 6 7 Noroeste 12 Noroeste 0.2 -- -- 90
2018-01-15 01:00:00 6 7 Oeste 15 Oeste 0 -- -- 92
2018-01-15 00:00:00 6.1 11 Oeste 20 Oeste 0.2 -- -- 92
2018-01-14 23:00:00 6.3 14 Noroeste 21 Oeste 0.1 -- -- 92
2018-01-14 22:00:00 6.3 11 Noroeste 16 Noroeste 0.8 -- -- 92
2018-01-14 21:00:00 6.7 9 Oeste 14 Noroeste 0.5 -- -- 91
2018-01-14 20:00:00 7.1 6 Oeste 13 Oeste 0.1 -- -- 90
2018-01-14 19:00:00 7.6 9 Oeste 22 Oeste 0 -- -- 88
2018-01-14 18:00:00 8.5 13 Oeste 22 Noroeste 0 -- -- 75
2018-01-14 17:00:00 11.5 6 Oeste 16 Oeste 0 -- -- 46
2018-01-14 16:00:00 12.1 5 Sudoeste 9 Sudoeste 0 -- -- 45
2018-01-14 15:00:00 12.5 0 Calma 10 Oeste 0 -- -- 45
2018-01-14 14:00:00 11.7 3 Sudoeste 13 Oeste 0 -- -- 47
2018-01-14 13:00:00 11 6 Oeste 11 Sudoeste 0 -- -- 51
2018-01-14 12:00:00 9.9 6 Oeste 11 Noroeste 0 -- -- 56
2018-01-14 11:00:00 8.5 4 Noroeste 10 Noroeste 0 -- -- 63
2018-01-14 10:00:00 7.6 4 Oeste 22 Oeste 0 -- -- 65
2018-01-14 09:00:00 6.1 14 Oeste 25 Oeste 0 -- -- 70
2018-01-14 08:00:00 5.4 13 Oeste 21 Oeste 0 -- -- 72
2018-01-14 07:00:00 4.6 12 Sudoeste 22 Oeste 0 -- -- 74
2018-01-14 06:00:00 5.3 13 Oeste 23 Oeste 0 -- -- 71
2018-01-14 05:00:00 5.4 9 Oeste 15 Oeste 0 -- -- 70
2018-01-14 04:00:00 4.7 9 Oeste 13 Oeste 0 -- -- 76
2018-01-14 03:00:00 3 0 Calma 7 Sudoeste 0 -- -- 87
2018-01-14 02:00:00 4.3 4 Oeste 7 Oeste 0 -- -- 84
2018-01-14 01:00:00 4.5 2 Sudoeste 15 Oeste 0 -- -- 80
2018-01-14 00:00:00 5.8 8 Oeste 14 Oeste 0 -- -- 78
2018-01-13 23:00:00 5.8 6 Oeste 7 Oeste 0 -- -- 76
2018-01-13 22:00:00 6.8 5 Oeste 10 Oeste 0 -- -- 67
2018-01-13 21:00:00 8 4 Oeste 6 Oeste 0 -- -- 64
2018-01-13 20:00:00 8.1 0 Calma 7 Sudeste 0 -- -- 61
2018-01-13 19:00:00 8.8 0 Calma 7 Oeste 0 -- -- 58
2018-01-13 18:00:00 9.6 6 Oeste 10 Oeste 0 -- -- 54
2018-01-13 17:00:00 10 7 Oeste 12 Oeste 0 -- -- 52
2018-01-13 16:00:00 9.6 6 Oeste 13 Oeste 0 -- -- 53
2018-01-13 15:00:00 8.5 10 Oeste 15 Oeste 0 -- -- 55
2018-01-13 14:00:00 10.4 6 Sudeste 17 Sudeste 0 -- -- 54
2018-01-13 13:00:00 7.9 4 Oeste 9 Noroeste 0 -- -- 54
2018-01-13 12:00:00 5.6 11 Oeste 17 Oeste 0 -- -- 64
2018-01-13 11:00:00 3.9 10 Oeste 16 Oeste 0 -- -- 72
2018-01-13 10:00:00 2.4 5 Oeste 13 Oeste 0 -- -- 79
2018-01-13 09:00:00 1.7 8 Oeste 16 Oeste 0 -- -- 82
2018-01-13 08:00:00 1.1 0 Calma 14 Noroeste 0 -- -- 83
2018-01-13 07:00:00 0.6 9 Oeste 14 Oeste 0 -- -- 86
2018-01-13 06:00:00 1 2 Noroeste 11 Oeste 0 -- -- 83
2018-01-13 05:00:00 2.5 10 Oeste 23 Oeste 0 -- -- 78
2018-01-13 04:00:00 3.1 6 Oeste 14 Oeste 0 -- -- 76
2018-01-13 03:00:00 2.9 10 Oeste 13 Oeste 0 -- -- 73
2018-01-13 02:00:00 5.1 8 Oeste 14 Oeste 0 -- -- 64
2018-01-13 01:00:00 5 9 Oeste 15 Oeste 0 -- -- 65
2018-01-13 00:00:00 6.1 8 Oeste 11 Oeste 0 -- -- 61
2018-01-12 23:00:00 6.6 7 Oeste 13 Oeste 0 -- -- 58
2018-01-12 22:00:00 7.6 7 Noroeste 12 Oeste 0 -- -- 55
2018-01-12 21:00:00 7.5 3 Oeste 9 Norte 0 -- -- 52
2018-01-12 20:00:00 9.1 6 Nordeste 12 Nordeste 0 -- -- 48
2018-01-12 19:00:00 9.2 0 Calma 11 Nordeste 0 -- -- 45
2018-01-12 18:00:00 12.6 3 Norte 14 Norte 0 -- -- 39
2018-01-12 17:00:00 14 8 Norte 15 Norte 0 -- -- 35
2018-01-12 16:00:00 14.5 6 Noroeste 27 Norte 0 -- -- 35
2018-01-12 15:00:00 13.9 12 Noroeste 27 Noroeste 0 -- -- 38
2018-01-12 14:00:00 13.3 14 Noroeste 33 Noroeste 0 -- -- 39
2018-01-12 13:00:00 12.6 16 Noroeste -- -- -- -- -- 42
2018-01-12 12:00:00 11.3 7 Noroeste 27 Norte 0 -- -- 47
2018-01-12 11:00:00 9.3 14 Oeste 26 Noroeste 0 -- -- 50
2018-01-12 10:00:00 7.7 16 Noroeste 32 Noroeste 0 -- -- 54
2018-01-12 09:00:00 5.8 13 Noroeste 22 Noroeste 0 -- -- 58
2018-01-12 08:00:00 4.3 9 Oeste 30 Noroeste 0 -- -- 60
2018-01-12 07:00:00 5.9 14 Oeste 25 Noroeste 0 -- -- 54
2018-01-12 06:00:00 5.6 7 Noroeste 21 Oeste 0 -- -- 58
2018-01-12 05:00:00 5 6 Oeste 12 Oeste 0 -- -- 61
2018-01-12 04:00:00 6.1 8 Noroeste 17 Noroeste 0 -- -- 56
2018-01-12 03:00:00 5.8 0 Calma 22 Norte 0 -- -- 58
2018-01-12 02:00:00 6.3 0 Calma 16 Noroeste 0 -- -- 55
2018-01-12 01:00:00 6.7 5 Noroeste 16 Noroeste 0 -- -- 55
2018-01-12 00:00:00 6.3 6 Oeste 19 Noroeste 0 -- -- 55
2018-01-11 23:00:00 7.5 8 Noroeste 18 Noroeste 0 -- -- 54
2018-01-11 22:00:00 7.3 12 Noroeste 20 Noroeste 0 -- -- 54
2018-01-11 21:00:00 7.4 11 Oeste 24 Noroeste 0 -- -- 51
2018-01-11 20:00:00 9.7 13 Noroeste 35 Oeste 0 -- -- 45
2018-01-11 19:00:00 9.5 10 Noroeste 33 Noroeste 0 -- -- 46
2018-01-11 18:00:00 10.8 19 Noroeste 40 Noroeste 0.1 -- -- 42
2018-01-11 17:00:00 11.4 20 Noroeste 45 Noroeste 0 -- -- 45
2018-01-11 16:00:00 10.5 26 Noroeste 48 Noroeste 0 -- -- 47
2018-01-11 15:00:00 11 23 Noroeste 41 Noroeste 0 -- -- 53
2018-01-11 14:00:00 7.7 23 Noroeste 53 Noroeste 0 -- -- 63
2018-01-11 13:00:00 10.9 26 Oeste 51 Oeste 0 -- -- 48
2018-01-11 12:00:00 11.9 17 Noroeste 39 Oeste 0.1 -- -- 48
2018-01-11 11:00:00 10.7 26 Oeste 41 Oeste 0 -- -- 50
2018-01-11 10:00:00 10.7 6 Oeste 14 Oeste 0 -- -- 47
2018-01-11 09:00:00 8.4 10 Oeste 19 Noroeste 0.1 -- -- 52
2018-01-11 08:00:00 8.1 9 Oeste 21 Oeste 0 -- -- 51
2018-01-11 07:00:00 7.6 6 Oeste 15 Oeste 0.1 -- -- 53
2018-01-11 06:00:00 7.4 6 Noroeste 18 Noroeste 0 -- -- 55
2018-01-11 05:00:00 8.4 9 Noroeste 26 Noroeste 0.1 -- -- 53
2018-01-11 04:00:00 8.7 10 Noroeste 29 Noroeste 0 -- -- 53
2018-01-11 03:00:00 10 15 Noroeste 38 Noroeste 0.1 -- -- 50
2018-01-11 02:00:00 10.5 17 Oeste 44 Noroeste 0 -- -- 50
2018-01-11 01:00:00 11.8 28 Noroeste 53 Noroeste 0.1 -- -- 45
2018-01-11 00:00:00 9.5 14 Oeste 24 Oeste 0.1 -- -- 65
2018-01-10 23:00:00 7.3 4 Oeste 11 Oeste 0.1 -- -- 64
2018-01-10 22:00:00 7.8 0 Calma 5 Sudoeste 0.1 -- -- 61
2018-01-10 21:00:00 8.5 0 Calma 8 Oeste 0.1 -- -- 54
2018-01-10 20:00:00 9.9 5 Oeste 18 Noroeste 0.1 -- -- 49
2018-01-10 19:00:00 12.2 15 Noroeste 37 Noroeste 0.2 -- -- 42
2018-01-10 18:00:00 13.4 18 Noroeste 44 Noroeste 0.2 -- -- 39
2018-01-10 17:00:00 14.9 17 Noroeste 44 Oeste 0.3 -- -- 37
2018-01-10 16:00:00 15.4 22 Noroeste 37 Noroeste 0.4 -- -- 38
2018-01-10 15:00:00 15.7 17 Noroeste 33 Noroeste 0.7 -- -- 42
2018-01-10 14:00:00 13.9 12 Noroeste 19 Noroeste 0.5 -- -- 57
2018-01-10 13:00:00 11.4 9 Oeste 18 Noroeste 0.1 -- -- 69
2018-01-10 12:00:00 9.3 11 Noroeste 18 Oeste 0 -- -- 77
2018-01-10 11:00:00 6.9 11 Oeste 18 Oeste 0.1 -- -- 90
2018-01-10 10:00:00 5.9 6 Oeste 11 Noroeste 0 -- -- 93
2018-01-10 09:00:00 4.6 8 Oeste 12 Oeste 0 -- -- 93
2018-01-10 08:00:00 4.7 6 Oeste 12 Oeste 0 -- -- 93
2018-01-10 07:00:00 5.2 9 Oeste 12 Oeste 0 -- -- 93
2018-01-10 06:00:00 5 5 Oeste 9 Oeste 0 -- -- 93
2018-01-10 05:00:00 5.4 3 Oeste 8 Oeste 0 -- -- 93
2018-01-10 04:00:00 5.8 0 Calma 8 Nordeste 0 -- -- 92
2018-01-10 03:00:00 5.5 5 Este 11 Este 0 -- -- 92
2018-01-10 02:00:00 5.8 0 Calma -- -- 0 -- -- 89
2018-01-10 01:00:00 5.8 0 Calma 5 Noroeste 0 -- -- 85
2018-01-10 00:00:00 6 0 Calma 4 Oeste 0 -- -- 79
2018-01-09 23:00:00 6 0 Calma -- -- 0 -- -- 75
2018-01-09 22:00:00 6.6 0 Calma 5 Este 0.1 -- -- 71
2018-01-09 21:00:00 6.7 0 Calma 9 Oeste 0 -- -- 69
2018-01-09 20:00:00 7.4 5 Oeste 8 Oeste 0 -- -- 65
2018-01-09 19:00:00 7.6 0 Calma -- -- 0 -- -- 60
2018-01-09 18:00:00 8.3 0 Calma -- -- 0 -- -- 57
2018-01-09 17:00:00 10.3 0 Calma 5 Oeste 0 -- -- 51
2018-01-09 16:00:00 10.4 2 Sudoeste 12 Oeste 0 -- -- 50
2018-01-09 15:00:00 10.3 6 Oeste 12 Oeste 0 -- -- 51
2018-01-09 14:00:00 9 6 Oeste 17 Oeste 0 -- -- 57
2018-01-09 13:00:00 7.8 11 Oeste 20 Oeste 0 -- -- 57
2018-01-09 12:00:00 6.6 11 Oeste 19 Oeste 0 -- -- 63
2018-01-09 11:00:00 3.9 13 Oeste 20 Oeste 0 -- -- 76
2018-01-09 10:00:00 1.7 11 Oeste 16 Oeste 0 -- -- 85
2018-01-09 09:00:00 -0.2 8 Oeste 16 Oeste 0 -- -- 93
2018-01-09 08:00:00 -0.5 11 Oeste 18 Oeste 0 -- -- 93
2018-01-09 07:00:00 0 8 Oeste 12 Oeste 0.1 -- -- 92
2018-01-09 06:00:00 0.3 7 Oeste 14 Oeste 0 -- -- 91
2018-01-09 05:00:00 0.4 10 Oeste 13 Oeste 0 -- -- 91
2018-01-09 04:00:00 0.9 9 Oeste 17 Oeste 0 -- -- 91
2018-01-09 03:00:00 0.8 6 Oeste 16 Oeste 0 -- -- 89
2018-01-09 02:00:00 1.2 5 Oeste 12 Oeste 0 -- -- 89
2018-01-09 01:00:00 1.5 0 Calma 9 Oeste 0 -- -- 89
2018-01-09 00:00:00 1.5 0 Calma 8 Oeste 0 -- -- 86
2018-01-08 23:00:00 2.9 0 Calma 9 Oeste 0 -- -- 81
2018-01-08 22:00:00 2.6 0 Calma 9 Oeste 0.1 -- -- 78
2018-01-08 21:00:00 4.9 0 Calma 6 Nordeste 0 -- -- 68
2018-01-08 20:00:00 4.9 5 Este 9 Este 0 -- -- 68
2018-01-08 19:00:00 6.9 5 Sudeste 12 Sudeste 0 -- -- 56
2018-01-08 18:00:00 9.1 8 Sudeste 12 Sudeste 0.1 -- -- 48
2018-01-08 17:00:00 11.5 6 Este 13 Este 0 -- -- 42
2018-01-08 16:00:00 11.6 5 Sudeste 12 Sudeste 0 -- -- 44
2018-01-08 15:00:00 11.6 0 Calma 8 Oeste 0 -- -- 48
2018-01-08 14:00:00 10.3 4 Oeste 13 Oeste 0.1 -- -- 51
2018-01-08 13:00:00 8.2 10 Oeste 15 Oeste 0 -- -- 60
2018-01-08 12:00:00 6.4 7 Oeste 14 Oeste 0 -- -- 66
2018-01-08 11:00:00 3.4 8 Oeste 13 Oeste 0 -- -- 79
2018-01-08 10:00:00 1.5 6 Oeste 10 Oeste 0 -- -- 87
2018-01-08 09:00:00 0.4 7 Oeste 14 Oeste 0 -- -- 92
2018-01-08 08:00:00 0 12 Oeste 15 Oeste 0.1 -- -- 92
2018-01-08 07:00:00 0.2 9 Oeste 12 Oeste 0 -- -- 91
2018-01-08 06:00:00 0.5 8 Oeste 15 Oeste 0 -- -- 91
2018-01-08 05:00:00 1.1 11 Oeste 15 Oeste 0.1 -- -- 88
2018-01-08 04:00:00 1.4 11 Oeste 15 Oeste 0 -- -- 86
2018-01-08 03:00:00 1.8 10 Oeste 13 Oeste 0 -- -- 85
2018-01-08 02:00:00 2.3 10 Oeste 14 Oeste 0 -- -- 85
2018-01-08 01:00:00 2.7 8 Oeste 10 Oeste 0.1 -- -- 85
2018-01-08 00:00:00 3.7 0 Calma 10 Sudeste 0 -- -- 80
2018-01-07 23:00:00 3.9 0 Calma 9 Nordeste 0 -- -- 76
2018-01-07 22:00:00 5.1 3 Este 9 Este 0 -- -- 72
2018-01-07 21:00:00 5.8 5 Sudeste 11 Sudeste 0 -- -- 66
2018-01-07 20:00:00 7.2 8 Sudeste 20 Sudeste 0 -- -- 57
2018-01-07 19:00:00 8.1 10 Sudeste 28 Sudeste 0.1 -- -- 52
2018-01-07 18:00:00 9.3 17 Sudeste 30 Sudeste 0 -- -- 44
2018-01-07 17:00:00 10.6 19 Sudeste 31 Sudeste 0 -- -- 44
2018-01-07 16:00:00 10.5 17 Sudeste 30 Sudeste 0 -- -- 40
2018-01-07 15:00:00 11.2 13 Sudeste 24 Este 0 -- -- 40
2018-01-07 14:00:00 10.9 12 Sudeste 22 Sudeste 0.1 -- -- 41
2018-01-07 13:00:00 9.6 0 Calma 9 Oeste 0 -- -- 50
2018-01-07 12:00:00 8.5 3 Oeste 8 Oeste 0 -- -- 58
2018-01-07 11:00:00 6.2 0 Calma 5 Noroeste 0.1 -- -- 69
2018-01-07 10:00:00 4.5 0 Calma 8 Sudeste 0 -- -- 91
2018-01-07 09:00:00 2.6 0 Calma 8 Sur 0 -- -- 94
2018-01-07 08:00:00 2 0 Calma 6 Oeste 0 -- -- 93
2018-01-07 07:00:00 3 0 Calma 5 Sudeste 0.1 -- -- 93
2018-01-07 06:00:00 3.5 0 Calma 4 Noroeste 0 -- -- 93
2018-01-07 05:00:00 4.9 3 Sudeste 12 Sudeste 0 -- -- 93
2018-01-07 04:00:00 5.2 3 Este 6 Este 0.1 -- -- 92
2018-01-07 03:00:00 5.1 0 Calma -- -- 0 -- -- 88
2018-01-07 02:00:00 5.1 0 Calma 6 Oeste 0.1 -- -- 86
2018-01-07 01:00:00 5.1 0 Calma 9 Este 0 -- -- 84
2018-01-07 00:00:00 5.5 0 Calma 13 Sudoeste 0.1 -- -- 82
2018-01-06 23:00:00 5.4 4 Oeste 15 Oeste 0.1 -- -- 80
2018-01-06 22:00:00 5.3 2 Oeste 23 Norte 0 -- -- 86
2018-01-06 21:00:00 6.2 12 Norte 26 Norte 0.1 -- -- 81
2018-01-06 20:00:00 6.1 17 Norte 31 Norte 0 -- -- 88
2018-01-06 19:00:00 6.6 12 Oeste 44 Oeste 0.1 -- -- 94
2018-01-06 18:00:00 8.5 18 Oeste 43 Oeste 0 -- -- 78
2018-01-06 17:00:00 11.1 12 Sudeste 23 Este 0.2 -- -- 85
2018-01-06 16:00:00 12 7 Sudeste 41 Oeste 0.2 -- -- 84
2018-01-06 15:00:00 11.1 8 Sudoeste 40 Sudeste 1 -- -- 89
2018-01-06 14:00:00 13.5 10 Sudeste 27 Sudeste 0 -- -- 75
2018-01-06 13:00:00 12.3 16 Sudeste 27 Sudeste 0 -- -- 78
2018-01-06 12:00:00 11.7 10 Sudeste 21 Sudeste 0 -- -- 82
2018-01-06 11:00:00 10.2 12 Sudeste 21 Sudeste 0 -- -- 88
2018-01-06 10:00:00 4.2 2 Noroeste 10 Sudeste 0 -- -- 84
2018-01-06 09:00:00 2.8 4 Noroeste 13 Oeste 0 -- -- 87
2018-01-06 08:00:00 2.8 10 Oeste 14 Oeste 0 -- -- 88
2018-01-06 07:00:00 2.7 8 Oeste 15 Oeste 0 -- -- 88
2018-01-06 06:00:00 2.4 0 Calma 10 Oeste 0 -- -- 87
2018-01-06 05:00:00 3 4 Noroeste 10 Oeste 0 -- -- 86
2018-01-06 04:00:00 3.3 0 Calma 7 Oeste 0 -- -- 84
2018-01-06 03:00:00 3.1 0 Calma 9 Oeste 0 -- -- 82
2018-01-06 02:00:00 4.5 8 Oeste 10 Oeste 0 -- -- 79
2018-01-06 01:00:00 5.3 0 Calma 10 Oeste 0 -- -- 74
2018-01-06 00:00:00 6.2 6 Oeste 10 Oeste 0 -- -- 70
2018-01-05 23:00:00 7.8 5 Oeste 9 Oeste 0 -- -- 64
2018-01-05 22:00:00 8.5 2 Oeste 8 Sudeste 0 -- -- 59
2018-01-05 21:00:00 11.2 0 Calma 13 Oeste 0 -- -- 50
2018-01-05 20:00:00 13.2 8 Oeste 20 Oeste 0 -- -- 45
2018-01-05 19:00:00 13.1 8 Oeste 13 Oeste 0 -- -- 45
2018-01-05 18:00:00 15.7 3 Noroeste 15 Noroeste 0 -- -- 40
2018-01-05 17:00:00 18.2 6 Noroeste 15 Norte 0 -- -- 36
2018-01-05 16:00:00 19.2 8 Oeste 14 Sudoeste 0 -- -- 36
2018-01-05 15:00:00 18.4 8 Oeste 17 Oeste 0 -- -- 38
2018-01-05 14:00:00 17.5 9 Oeste 16 Oeste 0 -- -- 42
2018-01-05 13:00:00 15.5 10 Oeste 18 Oeste 0 -- -- 47
2018-01-05 12:00:00 13.4 11 Oeste 17 Oeste 0 -- -- 56
2018-01-05 11:00:00 9.9 9 Oeste 17 Oeste 0 -- -- 69
2018-01-05 10:00:00 7 12 Oeste 16 Oeste 0 -- -- 80
2018-01-05 09:00:00 5.6 12 Oeste 18 Oeste 0 -- -- 88
2018-01-05 08:00:00 5.6 11 Oeste 17 Oeste 0 -- -- 90
2018-01-05 07:00:00 5.7 14 Oeste 20 Oeste 0 -- -- 90
2018-01-05 06:00:00 6.3 12 Oeste 17 Oeste 0 -- -- 88
2018-01-05 05:00:00 7 12 Oeste 17 Noroeste 0 -- -- 88
2018-01-05 04:00:00 8.2 11 Oeste 19 Oeste 0 -- -- 86
2018-01-05 03:00:00 10 13 Oeste 18 Oeste 0 -- -- 79
2018-01-05 02:00:00 10.6 8 Oeste 15 Oeste 0 -- -- 78
2018-01-05 01:00:00 10.9 10 Oeste 15 Oeste 0 -- -- 79
2018-01-05 00:00:00 11.4 10 Oeste 17 Oeste 0 -- -- 76
2018-01-04 23:00:00 11.9 8 Noroeste 16 Oeste 0 -- -- 73
2018-01-04 22:00:00 12.4 7 Noroeste 20 Noroeste 0 -- -- 70
2018-01-04 21:00:00 13.7 12 Oeste 20 Oeste 0 -- -- 66
2018-01-04 20:00:00 14.2 10 Oeste 17 Oeste 0 -- -- 63
2018-01-04 19:00:00 15.3 12 Oeste 16 Oeste 0 -- -- 58
2018-01-04 18:00:00 17 8 Noroeste 29 Norte 0 -- -- 51
2018-01-04 17:00:00 19.4 13 Norte 27 Noroeste 0 -- -- 44
2018-01-04 16:00:00 21.2 12 Norte 23 Norte 0 -- -- 42
2018-01-04 15:00:00 21.4 10 Noroeste 23 Oeste 0 -- -- 43
2018-01-04 14:00:00 20 13 Oeste 22 Oeste 0 -- -- 47
2018-01-04 13:00:00 18 12 Oeste 23 Oeste 0 -- -- 53
2018-01-04 12:00:00 16.3 14 Oeste 22 Oeste 0 -- -- 60
2018-01-04 11:00:00 14.1 13 Oeste 23 Oeste 0 -- -- 69
2018-01-04 10:00:00 11.1 14 Oeste 22 Oeste 0 -- -- 78
2018-01-04 09:00:00 10.5 10 Oeste 23 Oeste 0 -- -- 82
2018-01-04 08:00:00 11.6 12 Oeste 27 Oeste 0 -- -- 79
2018-01-04 07:00:00 11 11 Oeste 24 Oeste 0 -- -- 78
2018-01-04 06:00:00 10.5 12 Oeste 21 Oeste 0 -- -- 79
2018-01-04 05:00:00 10.9 9 Sudoeste 27 Oeste 0 -- -- 79
2018-01-04 04:00:00 12.7 12 Noroeste 22 Noroeste 0 -- -- 76
2018-01-04 03:00:00 12.5 10 Noroeste 25 Noroeste 0 -- -- 76
2018-01-04 02:00:00 12.3 10 Oeste 26 Oeste 0 -- -- 76
2018-01-04 01:00:00 13 15 Noroeste 28 Noroeste 0 -- -- 73
2018-01-04 00:00:00 13.6 11 Noroeste 24 Noroeste 0 -- -- 71
2018-01-03 23:00:00 13 10 Oeste 20 Oeste 0 -- -- 72
2018-01-03 22:00:00 14.2 9 Oeste 26 Norte 0 -- -- 67
2018-01-03 21:00:00 14.9 10 Noroeste 26 Norte 0 -- -- 64
2018-01-03 20:00:00 16.1 12 Noroeste 28 Norte 0 -- -- 60
2018-01-03 19:00:00 16.7 16 Noroeste 34 Noroeste 0 -- -- 57
2018-01-03 18:00:00 17.2 17 Noroeste 36 Noroeste 0 -- -- 54
2018-01-03 17:00:00 18.7 10 Noroeste 31 Noroeste 0 -- -- 50
2018-01-03 16:00:00 19 15 Norte 35 Norte 0 -- -- 49
2018-01-03 15:00:00 19.3 15 Noroeste 33 Norte 0 -- -- 47
2018-01-03 14:00:00 19.3 14 Noroeste 26 Noroeste 0 -- -- 48
2018-01-03 13:00:00 17.8 14 Oeste 25 Noroeste 0 -- -- 52
2018-01-03 12:00:00 16.5 13 Noroeste 26 Noroeste 0 -- -- 57
2018-01-03 11:00:00 14.2 10 Noroeste 23 Oeste 0 -- -- 65
2018-01-03 10:00:00 12.1 12 Noroeste 24 Oeste 0 -- -- 72
2018-01-03 09:00:00 10.6 13 Noroeste 29 Oeste 0 -- -- 76
2018-01-03 08:00:00 10.9 9 Oeste 16 Oeste 0 -- -- 77
2018-01-03 07:00:00 10.6 6 Sudoeste 15 Sudoeste 0 -- -- 77
2018-01-03 06:00:00 12.1 6 Norte 23 Norte 0 -- -- 70
2018-01-03 05:00:00 10.8 4 Oeste 12 Oeste 0 -- -- 72
2018-01-03 04:00:00 10.6 6 Oeste 18 Oeste 0 -- -- 67
2018-01-03 03:00:00 10.7 11 Oeste 21 Oeste 0 -- -- 62
2018-01-03 02:00:00 11.7 12 Oeste 38 Norte 0 -- -- 57
2018-01-03 01:00:00 14.1 18 Norte 36 Norte 0 -- -- 53
2018-01-03 00:00:00 14.3 17 Norte 33 Norte 0 -- -- 49
2018-01-02 23:00:00 14.6 16 Norte 28 Norte 0 -- -- 46
2018-01-02 22:00:00 15.1 15 Norte 30 Nordeste 0 -- -- 48
2018-01-02 21:00:00 14.5 4 Norte 31 Noroeste 0 -- -- 49
2018-01-02 20:00:00 14.6 12 Noroeste 35 Noroeste 0 -- -- 48
2018-01-02 19:00:00 15.3 16 Noroeste 32 Noroeste 0 -- -- 46
2018-01-02 18:00:00 16.1 11 Noroeste 30 Norte 0 -- -- 43
2018-01-02 17:00:00 17.3 14 Noroeste 35 Noroeste 0 -- -- 40
2018-01-02 16:00:00 17.8 14 Noroeste 35 Noroeste 0 -- -- 39
2018-01-02 15:00:00 17.8 16 Noroeste 39 Noroeste 0 -- -- 38
2018-01-02 14:00:00 18 15 Noroeste 39 Noroeste 0 -- -- 36
2018-01-02 13:00:00 17.4 19 Noroeste 44 Norte 0 -- -- 40
2018-01-02 12:00:00 15.8 18 Noroeste 38 Oeste 0 -- -- 43
2018-01-02 11:00:00 12.2 17 Noroeste 34 Oeste 0 -- -- 52
2018-01-02 10:00:00 9 12 Oeste 22 Oeste 0 -- -- 63
2018-01-02 09:00:00 6.6 9 Oeste 14 Oeste 0 -- -- 72
2018-01-02 08:00:00 5.4 9 Oeste 17 Oeste 0 -- -- 73
2018-01-02 07:00:00 6.2 9 Oeste 14 Oeste 0 -- -- 71
2018-01-02 06:00:00 6.9 3 Noroeste 9 Oeste 0 -- -- 69
2018-01-02 05:00:00 7.6 0 Calma 18 Oeste 0 -- -- 64
2018-01-02 04:00:00 9.2 10 Oeste 24 Oeste 0 -- -- 62
2018-01-02 03:00:00 9.9 11 Oeste 15 Oeste 0 -- -- 58
2018-01-02 02:00:00 8.4 3 Oeste 11 Sudoeste 0 -- -- 54
2018-01-02 01:00:00 10.6 9 Oeste 18 Oeste 0 -- -- 48
2018-01-02 00:00:00 10.8 0 Calma 23 Oeste 0 -- -- 43
2018-01-01 23:00:00 11 6 Oeste 23 Noroeste 0 -- -- 37
2018-01-01 22:00:00 12.2 8 Noroeste 26 Noroeste 0 -- -- 32
2018-01-01 21:00:00 13 8 Noroeste 28 Noroeste 0 -- -- 29
2018-01-01 20:00:00 13.9 10 Noroeste 24 Noroeste 0 -- -- 24
2018-01-01 19:00:00 13.7 8 Sudoeste 30 Noroeste 0 -- -- 20
2018-01-01 18:00:00 15.5 8 Oeste 21 Oeste 0 -- -- 16
2018-01-01 17:00:00 18.5 18 Noroeste 35 Noroeste 0 -- -- 16
2018-01-01 16:00:00 19.4 5 Oeste 15 Noroeste 0 -- -- 22
2018-01-01 15:00:00 18.2 7 Oeste 14 Noroeste 0 -- -- 27
2018-01-01 14:00:00 16 8 Oeste 17 Oeste 0 -- -- 33
2018-01-01 13:00:00 14.3 12 Oeste 24 Sudoeste 0 -- -- 41
2018-01-01 12:00:00 11.9 11 Oeste 17 Oeste 0 -- -- 50
2018-01-01 11:00:00 8.7 8 Oeste 18 Oeste 0 -- -- 59
2018-01-01 10:00:00 7.6 10 Oeste 14 Oeste 0 -- -- 63
2018-01-01 09:00:00 6.8 6 Oeste 13 Oeste 0 -- -- 67
2018-01-01 08:00:00 6.6 9 Sudoeste 15 Oeste 0 -- -- 65
2018-01-01 07:00:00 7.6 6 Noroeste 18 Norte 0 -- -- 57
2018-01-01 06:00:00 9.8 7 Norte 35 Noroeste 0 -- -- 50
2018-01-01 05:00:00 10.5 14 Noroeste 38 Noroeste 0 -- -- 48
2018-01-01 04:00:00 10.9 15 Noroeste 32 Noroeste 0 -- -- 46
2018-01-01 03:00:00 11.4 14 Noroeste 31 Noroeste 0 -- -- 45
2018-01-01 02:00:00 12 13 Noroeste 40 Noroeste 0 -- -- 45
2018-01-01 01:00:00 13.1 27 Noroeste 62 Noroeste 0 -- -- 43
2018-01-01 00:00:00 14.6 32 Noroeste 73 Noroeste 0 -- -- 42
2017-12-31 23:00:00 15.8 37 Noroeste 60 Noroeste 0 -- -- 46
2017-12-31 22:00:00 14.8 18 Oeste 40 Noroeste 0 -- -- 50
2017-12-31 21:00:00 15.2 24 Noroeste 41 Noroeste 0 -- -- 46
2017-12-31 20:00:00 15.4 17 Noroeste 37 Noroeste 0 -- -- 43
2017-12-31 19:00:00 16.1 26 Noroeste 40 Noroeste 0 -- -- 43
2017-12-31 18:00:00 15.1 8 Oeste 19 Oeste 0 -- -- 47
2017-12-31 17:00:00 15.7 9 Oeste 15 Oeste 0 -- -- 46
2017-12-31 16:00:00 15.9 7 Noroeste 15 Oeste 0 -- -- 45
2017-12-31 15:00:00 15.8 8 Oeste 15 Oeste 0 -- -- 44
2017-12-31 14:00:00 14.1 8 Noroeste 17 Noroeste 0 -- -- 54
2017-12-31 13:00:00 12.6 13 Oeste 23 Oeste 0 -- -- 58
2017-12-31 12:00:00 10.7 11 Noroeste 24 Oeste 0 -- -- 64
2017-12-31 11:00:00 8.4 14 Oeste 25 Oeste 0 -- -- 73
2017-12-31 10:00:00 6.1 15 Oeste 21 Oeste 0 -- -- 86
2017-12-31 09:00:00 5.6 13 Oeste 19 Oeste 0 -- -- 89
2017-12-31 08:00:00 5.8 14 Oeste 18 Oeste 0 -- -- 89
2017-12-31 07:00:00 6.3 14 Oeste 23 Oeste 0 -- -- 89
2017-12-31 06:00:00 6.3 13 Oeste 18 Oeste 0 -- -- 91
2017-12-31 05:00:00 6.6 7 Oeste 16 Oeste 0 -- -- 91
2017-12-31 04:00:00 7.1 12 Oeste 18 Oeste 0 -- -- 89
2017-12-31 03:00:00 8.8 11 Oeste 20 Oeste 0 -- -- 86
2017-12-31 02:00:00 8.7 12 Oeste 21 Noroeste 0 -- -- 84
2017-12-31 01:00:00 10.3 13 Oeste 21 Oeste 0 -- -- 78